Time,TemperatureF,DewpointF,PressureIn,WindDirection,WindDirectionDegrees,WindSpeedMPH,WindSpeedGustMPH,Humidity,HourlyPrecipIn,Conditions,Clouds,dailyrainin,SoftwareType,DateUTC
2013-06-14 00:04:00,59.0,58.0,29.68,SSE,165,0.0,-999.0,96,-99.99,,,0.01,weatherlink.com 1.10,2013-06-14 04:04:00,
2013-06-14 00:19:00,57.6,57.0,29.69,South,187,6.0,-999.0,97,-99.99,,,0.02,weatherlink.com 1.10,2013-06-14 04:19:00,
2013-06-14 00:34:00,56.6,56.0,29.70,East,87,3.0,-999.0,98,-99.99,,,0.02,weatherlink.com 1.10,2013-06-14 04:34:00,
2013-06-14 00:49:00,55.9,55.0,29.70,West,275,3.0,-999.0,98,-99.99,,,0.02,weatherlink.com 1.10,2013-06-14 04:49:00,
2013-06-14 01:04:00,55.4,55.0,29.71,WSW,241,1.0,-999.0,97,-99.99,,,0.02,weatherlink.com 1.10,2013-06-14 05:04:00,
2013-06-14 01:19:00,55.3,55.0,29.72,WNW,290,9.0,-999.0,97,-99.99,,,0.02,weatherlink.com 1.10,2013-06-14 05:19:00,
2013-06-14 01:34:00,55.0,54.0,29.71,WSW,252,4.0,-999.0,97,-99.99,,,0.02,weatherlink.com 1.10,2013-06-14 05:34:00,
2013-06-14 01:49:00,54.5,54.0,29.71,East,81,5.0,-999.0,97,-99.99,,,0.02,weatherlink.com 1.10,2013-06-14 05:49:00,
2013-06-14 02:04:00,53.6,53.0,29.72,West,266,4.0,-999.0,96,-99.99,,,0.02,weatherlink.com 1.10,2013-06-14 06:04:00,
2013-06-14 02:19:00,53.2,52.0,29.74,ESE,120,0.0,-999.0,95,-99.99,,,0.02,weatherlink.com 1.10,2013-06-14 06:19:00,
2013-06-14 02:34:00,52.9,52.0,29.74,ESE,118,3.0,-999.0,96,-99.99,,,0.02,weatherlink.com 1.10,2013-06-14 06:34:00,
2013-06-14 02:49:00,52.6,51.0,29.75,WNW,282,2.0,-999.0,95,-99.99,,,0.02,weatherlink.com 1.10,2013-06-14 06:49:00,
2013-06-14 03:04:00,52.3,51.0,29.75,ESE,113,0.0,-999.0,95,-99.99,,,0.02,weatherlink.com 1.10,2013-06-14 07:04:00,
2013-06-14 03:19:00,52.0,51.0,29.76,ENE,71,2.0,-999.0,96,-99.99,,,0.02,weatherlink.com 1.10,2013-06-14 07:19:00,
2013-06-14 03:34:00,52.0,51.0,29.76,ENE,65,1.0,-999.0,96,-99.99,,,0.02,weatherlink.com 1.10,2013-06-14 07:34:00,
2013-06-14 03:49:00,52.0,51.0,29.76,SSE,155,0.0,-999.0,96,-99.99,,,0.02,weatherlink.com 1.10,2013-06-14 07:49:00,
2013-06-14 04:05:00,51.9,51.0,29.76,ESE,115,1.0,-999.0,96,-99.99,,,0.02,weatherlink.com 1.10,2013-06-14 08:05:00,
2013-06-14 04:20:00,52.0,51.0,29.78,ESE,115,0.0,-999.0,96,-99.99,,,0.02,weatherlink.com 1.10,2013-06-14 08:20:00,
2013-06-14 04:35:00,52.0,51.0,29.78,ESE,115,0.0,-999.0,96,-99.99,,,0.02,weatherlink.com 1.10,2013-06-14 08:35:00,
2013-06-14 04:50:00,52.0,51.0,29.78,East,93,0.0,-999.0,95,-99.99,,,0.02,weatherlink.com 1.10,2013-06-14 08:50:00,
2013-06-14 05:05:00,52.2,51.0,29.79,ENE,62,0.0,-999.0,94,-99.99,,,0.02,weatherlink.com 1.10,2013-06-14 09:05:00,
2013-06-14 05:20:00,52.2,51.0,29.79,SSE,151,1.0,-999.0,95,-99.99,,,0.02,weatherlink.com 1.10,2013-06-14 09:20:00,
2013-06-14 05:35:00,52.0,50.0,29.80,East,91,2.0,-999.0,93,-99.99,,,0.02,weatherlink.com 1.10,2013-06-14 09:35:00,
2013-06-14 05:50:00,51.9,50.0,29.81,South,171,0.0,-999.0,92,-99.99,,,0.02,weatherlink.com 1.10,2013-06-14 09:50:00,
2013-06-14 06:05:00,51.6,49.0,29.81,South,171,2.0,-999.0,92,-99.99,,,0.02,weatherlink.com 1.10,2013-06-14 10:05:00,
2013-06-14 06:20:00,51.3,49.0,29.81,South,172,0.0,-999.0,91,-99.99,,,0.02,weatherlink.com 1.10,2013-06-14 10:20:00,
2013-06-14 06:35:00,51.4,49.0,29.83,West,265,0.0,-999.0,92,-99.99,,,0.02,weatherlink.com 1.10,2013-06-14 10:35:00,
2013-06-14 06:50:00,51.0,49.0,29.83,West,265,0.0,-999.0,92,-99.99,,,0.02,weatherlink.com 1.10,2013-06-14 10:50:00,
2013-06-14 07:05:00,51.3,49.0,29.84,West,265,0.0,-999.0,91,-99.99,,,0.02,weatherlink.com 1.10,2013-06-14 11:05:00,
2013-06-14 07:20:00,53.8,51.0,29.83,West,265,0.0,-999.0,89,-99.99,,,0.02,weatherlink.com 1.10,2013-06-14 11:20:00,
2013-06-14 07:35:00,54.8,51.0,29.82,North,9,0.0,-999.0,87,-99.99,,,0.02,weatherlink.com 1.10,2013-06-14 11:35:00,
2013-06-14 07:50:00,55.9,51.0,29.82,ENE,62,0.0,-999.0,83,-99.99,,,0.02,weatherlink.com 1.10,2013-06-14 11:50:00,
2013-06-14 08:05:00,56.9,52.0,29.82,SE,136,0.0,-999.0,83,-99.99,,,0.02,weatherlink.com 1.10,2013-06-14 12:05:00,
2013-06-14 08:20:00,58.1,52.0,29.83,ESE,118,2.0,-999.0,79,-99.99,,,0.02,weatherlink.com 1.10,2013-06-14 12:20:00,
2013-06-14 08:35:00,58.0,51.0,29.84,ESE,118,0.0,-999.0,77,-99.99,,,0.02,weatherlink.com 1.10,2013-06-14 12:35:00,
2013-06-14 08:50:00,58.6,51.0,29.83,East,90,4.0,-999.0,75,-99.99,,,0.02,weatherlink.com 1.10,2013-06-14 12:50:00,
2013-06-14 09:05:00,57.8,48.0,29.84,ESE,107,2.0,-999.0,69,-99.99,,,0.02,weatherlink.com 1.10,2013-06-14 13:05:00,
2013-06-14 09:20:00,58.9,48.0,29.85,WNW,282,0.0,-999.0,68,-99.99,,,0.02,weatherlink.com 1.10,2013-06-14 13:20:00,
2013-06-14 09:35:00,59.9,52.0,29.84,NE,34,1.0,-999.0,74,-99.99,,,0.02,weatherlink.com 1.10,2013-06-14 13:35:00,
2013-06-14 09:50:00,60.4,52.0,29.84,East,84,2.0,-999.0,73,-99.99,,,0.02,weatherlink.com 1.10,2013-06-14 13:50:00,
2013-06-14 10:05:00,60.9,52.0,29.85,WNW,289,0.0,-999.0,72,-99.99,,,0.02,weatherlink.com 1.10,2013-06-14 14:05:00,
2013-06-14 10:20:00,60.5,51.0,29.84,NE,48,2.0,-999.0,72,-99.99,,,0.02,weatherlink.com 1.10,2013-06-14 14:20:00,
2013-06-14 10:35:00,60.2,53.0,29.84,ESE,115,5.0,-999.0,76,-99.99,,,0.02,weatherlink.com 1.10,2013-06-14 14:35:00,
2013-06-14 10:50:00,61.6,52.0,29.84,ESE,103,0.0,-999.0,70,-99.99,,,0.02,weatherlink.com 1.10,2013-06-14 14:50:00,
2013-06-14 11:05:00,60.7,53.0,29.86,ENE,59,3.0,-999.0,75,-99.99,,,0.02,weatherlink.com 1.10,2013-06-14 15:05:00,
2013-06-14 11:20:00,60.9,51.0,29.85,West,262,0.0,-999.0,69,-99.99,,,0.02,weatherlink.com 1.10,2013-06-14 15:20:00,
2013-06-14 11:35:00,62.0,52.0,29.85,East,96,8.0,-999.0,71,-99.99,,,0.02,weatherlink.com 1.10,2013-06-14 15:35:00,
2013-06-14 11:50:00,61.8,51.0,29.85,East,85,2.0,-999.0,67,-99.99,,,0.02,weatherlink.com 1.10,2013-06-14 15:50:00,
2013-06-14 12:05:00,62.1,51.0,29.86,East,98,1.0,-999.0,68,-99.99,,,0.02,weatherlink.com 1.10,2013-06-14 16:05:00,
2013-06-14 12:20:00,62.4,52.0,29.87,NE,45,0.0,-999.0,69,-99.99,,,0.02,weatherlink.com 1.10,2013-06-14 16:20:00,
2013-06-14 12:35:00,63.2,50.0,29.87,ENE,63,1.0,-999.0,63,-99.99,,,0.02,weatherlink.com 1.10,2013-06-14 16:35:00,
2013-06-14 12:50:00,63.9,54.0,29.87,NNE,30,1.0,-999.0,70,-99.99,,,0.02,weatherlink.com 1.10,2013-06-14 16:50:00,
2013-06-14 13:05:00,63.9,52.0,29.88,NNE,33,0.0,-999.0,65,-99.99,,,0.02,weatherlink.com 1.10,2013-06-14 17:05:00,
2013-06-14 13:20:00,64.2,52.0,29.89,NW,320,3.0,-999.0,65,-99.99,,,0.02,weatherlink.com 1.10,2013-06-14 17:20:00,
2013-06-14 13:35:00,63.2,50.0,29.89,ENE,77,0.0,-999.0,62,-99.99,,,0.02,weatherlink.com 1.10,2013-06-14 17:35:00,
2013-06-14 13:50:00,63.7,49.0,29.89,ENE,61,3.0,-999.0,60,-99.99,,,0.02,weatherlink.com 1.10,2013-06-14 17:50:00,
2013-06-14 14:05:00,63.9,49.0,29.90,ENE,59,1.0,-999.0,59,-99.99,,,0.02,weatherlink.com 1.10,2013-06-14 18:05:00,
2013-06-14 14:20:00,63.9,50.0,29.90,ENE,72,0.0,-999.0,62,-99.99,,,0.02,weatherlink.com 1.10,2013-06-14 18:20:00,
2013-06-14 14:35:00,64.5,50.0,29.89,ENE,78,1.0,-999.0,59,-99.99,,,0.02,weatherlink.com 1.10,2013-06-14 18:35:00,
2013-06-14 14:50:00,63.4,50.0,29.90,ENE,78,0.0,-999.0,62,-99.99,,,0.02,weatherlink.com 1.10,2013-06-14 18:50:00,
2013-06-14 15:05:00,62.3,50.0,29.90,ESE,107,0.0,-999.0,65,-99.99,,,0.02,weatherlink.com 1.10,2013-06-14 19:05:00,
2013-06-14 15:20:00,63.7,50.0,29.90,ENE,62,3.0,-999.0,62,-99.99,,,0.02,weatherlink.com 1.10,2013-06-14 19:20:00,
2013-06-14 15:35:00,63.4,53.0,29.91,ENE,72,0.0,-999.0,69,-99.99,,,0.02,weatherlink.com 1.10,2013-06-14 19:35:00,
2013-06-14 15:50:00,64.7,53.0,29.89,NW,317,0.0,-999.0,67,-99.99,,,0.02,weatherlink.com 1.10,2013-06-14 19:50:00,
2013-06-14 16:05:00,65.3,52.0,29.88,West,266,1.0,-999.0,63,-99.99,,,0.02,weatherlink.com 1.10,2013-06-14 20:05:00,
2013-06-14 16:20:00,63.9,50.0,29.89,ENE,57,0.0,-999.0,61,-99.99,,,0.02,weatherlink.com 1.10,2013-06-14 20:20:00,
2013-06-14 16:35:00,64.8,52.0,29.89,West,281,0.0,-999.0,64,-99.99,,,0.02,weatherlink.com 1.10,2013-06-14 20:35:00,
2013-06-14 16:50:00,63.5,51.0,29.90,NE,49,1.0,-999.0,63,-99.99,,,0.02,weatherlink.com 1.10,2013-06-14 20:50:00,
2013-06-14 17:05:00,64.0,51.0,29.89,WNW,284,5.0,-999.0,63,-99.99,,,0.02,weatherlink.com 1.10,2013-06-14 21:05:00,
2013-06-14 17:20:00,63.9,53.0,29.89,West,281,0.0,-999.0,68,-99.99,,,0.02,weatherlink.com 1.10,2013-06-14 21:20:00,
2013-06-14 17:35:00,62.4,52.0,29.90,North,355,0.0,-999.0,70,-99.99,,,0.02,weatherlink.com 1.10,2013-06-14 21:35:00,
2013-06-14 17:50:00,62.4,51.0,29.91,East,84,3.0,-999.0,66,-99.99,,,0.02,weatherlink.com 1.10,2013-06-14 21:50:00,
2013-06-14 18:05:00,62.3,51.0,29.91,South,190,0.0,-999.0,66,-99.99,,,0.02,weatherlink.com 1.10,2013-06-14 22:05:00,
2013-06-14 18:20:00,62.7,49.0,29.90,ENE,73,0.0,-999.0,62,-99.99,,,0.02,weatherlink.com 1.10,2013-06-14 22:20:00,
2013-06-14 18:35:00,62.0,50.0,29.90,West,281,2.0,-999.0,66,-99.99,,,0.02,weatherlink.com 1.10,2013-06-14 22:35:00,
2013-06-14 18:50:00,61.8,50.0,29.92,SSW,202,0.0,-999.0,65,-99.99,,,0.02,weatherlink.com 1.10,2013-06-14 22:50:00,
2013-06-14 19:05:00,61.3,51.0,29.91,ENE,75,0.0,-999.0,69,-99.99,,,0.02,weatherlink.com 1.10,2013-06-14 23:05:00,
2013-06-14 19:20:00,60.9,52.0,29.90,ENE,71,0.0,-999.0,73,-99.99,,,0.02,weatherlink.com 1.10,2013-06-14 23:20:00,
2013-06-14 19:35:00,60.2,52.0,29.90,West,263,2.0,-999.0,73,-99.99,,,0.02,weatherlink.com 1.10,2013-06-14 23:35:00,
2013-06-14 19:50:00,58.7,52.0,29.90,ESE,103,0.0,-999.0,78,-99.99,,,0.02,weatherlink.com 1.10,2013-06-14 23:50:00,
2013-06-14 20:05:00,58.4,51.0,29.91,NE,55,0.0,-999.0,75,-99.99,,,0.02,weatherlink.com 1.10,2013-06-15 00:05:00,
2013-06-14 20:20:00,57.5,51.0,29.91,SE,130,0.0,-999.0,79,-99.99,,,0.02,weatherlink.com 1.10,2013-06-15 00:20:00,
2013-06-14 20:35:00,56.3,51.0,29.93,SE,130,0.0,-999.0,82,-99.99,,,0.02,weatherlink.com 1.10,2013-06-15 00:35:00,
2013-06-14 20:50:00,55.4,52.0,29.92,SE,130,0.0,-999.0,87,-99.99,,,0.02,weatherlink.com 1.10,2013-06-15 00:50:00,
2013-06-14 21:06:00,54.8,51.0,29.94,SE,130,0.0,-999.0,88,-99.99,,,0.02,weatherlink.com 1.10,2013-06-15 01:06:00,
2013-06-14 21:21:00,54.4,51.0,29.92,SE,130,0.0,-999.0,89,-99.99,,,0.02,weatherlink.com 1.10,2013-06-15 01:21:00,
2013-06-14 21:36:00,54.5,50.0,29.93,West,265,0.0,-999.0,86,-99.99,,,0.02,weatherlink.com 1.10,2013-06-15 01:36:00,
2013-06-14 21:51:00,55.0,50.0,29.93,NW,318,0.0,-999.0,83,-99.99,,,0.02,weatherlink.com 1.10,2013-06-15 01:51:00,
2013-06-14 22:06:00,54.8,51.0,29.93,NW,318,0.0,-999.0,87,-99.99,,,0.02,weatherlink.com 1.10,2013-06-15 02:06:00,
2013-06-14 22:21:00,54.5,51.0,29.95,NW,317,0.0,-999.0,88,-99.99,,,0.02,weatherlink.com 1.10,2013-06-15 02:21:00,
2013-06-14 22:36:00,54.2,51.0,29.95,NW,318,0.0,-999.0,88,-99.99,,,0.02,weatherlink.com 1.10,2013-06-15 02:36:00,
2013-06-14 22:51:00,53.9,50.0,29.95,NW,317,0.0,-999.0,85,-99.99,,,0.02,weatherlink.com 1.10,2013-06-15 02:51:00,
2013-06-14 23:06:00,53.6,50.0,29.96,NW,317,0.0,-999.0,87,-99.99,,,0.02,weatherlink.com 1.10,2013-06-15 03:06:00,
2013-06-14 23:21:00,54.1,49.0,29.95,NW,317,0.0,-999.0,84,-99.99,,,0.02,weatherlink.com 1.10,2013-06-15 03:21:00,
2013-06-14 23:36:00,53.9,50.0,29.96,NW,318,2.0,-999.0,85,-99.99,,,0.02,weatherlink.com 1.10,2013-06-15 03:36:00,
2013-06-14 23:51:00,53.5,50.0,29.96,NW,317,2.0,-999.0,87,-99.99,,,0.02,weatherlink.com 1.10,2013-06-15 03:51:00,